sensor_id;sensor_type;location;lat;lon;timestamp;temperature;humidity
9949;DHT22;5013;51.840;8.276;2023-07-09T00:01:51;22.30;76.60
9949;DHT22;5013;51.840;8.276;2023-07-09T00:04:17;22.30;1.00
9949;DHT22;5013;51.840;8.276;2023-07-09T00:06:43;22.20;1.00
9949;DHT22;5013;51.840;8.276;2023-07-09T00:09:14;22.10;1.00
9949;DHT22;5013;51.840;8.276;2023-07-09T00:11:41;22.20;3.10
9949;DHT22;5013;51.840;8.276;2023-07-09T00:14:09;22.20;1.00
9949;DHT22;5013;51.840;8.276;2023-07-09T00:16:35;22.10;1.00
9949;DHT22;5013;51.840;8.276;2023-07-09T00:19:03;22.20;67.20
9949;DHT22;5013;51.840;8.276;2023-07-09T00:21:29;22.30;91.10
9949;DHT22;5013;51.840;8.276;2023-07-09T00:24:00;22.20;99.90
9949;DHT22;5013;51.840;8.276;2023-07-09T00:26:33;22.10;67.40
9949;DHT22;5013;51.840;8.276;2023-07-09T00:28:59;22.10;15.50
9949;DHT22;5013;51.840;8.276;2023-07-09T00:31:25;22.00;99.90
9949;DHT22;5013;51.840;8.276;2023-07-09T00:33:51;21.90;99.90
9949;DHT22;5013;51.840;8.276;2023-07-09T00:36:30;21.80;99.90
9949;DHT22;5013;51.840;8.276;2023-07-09T00:39:00;21.80;98.30
9949;DHT22;5013;51.840;8.276;2023-07-09T00:41:32;21.70;99.90
9949;DHT22;5013;51.840;8.276;2023-07-09T00:49:13;21.50;99.90
9949;DHT22;5013;51.840;8.276;2023-07-09T00:51:44;21.40;99.90
9949;DHT22;5013;51.840;8.276;2023-07-09T00:54:24;21.50;99.90
9949;DHT22;5013;51.840;8.276;2023-07-09T00:56:58;21.40;1.00
9949;DHT22;5013;51.840;8.276;2023-07-09T00:59:26;21.40;99.90
9949;DHT22;5013;51.840;8.276;2023-07-09T01:01:55;21.50;99.90
9949;DHT22;5013;51.840;8.276;2023-07-09T01:04:21;21.60;99.90
9949;DHT22;5013;51.840;8.276;2023-07-09T01:06:51;21.50;99.90
9949;DHT22;5013;51.840;8.276;2023-07-09T01:09:17;21.60;99.90
9949;DHT22;5013;51.840;8.276;2023-07-09T01:11:43;21.70;99.90
9949;DHT22;5013;51.840;8.276;2023-07-09T01:14:13;21.70;99.90
9949;DHT22;5013;51.840;8.276;2023-07-09T01:16:49;21.60;99.90
9949;DHT22;5013;51.840;8.276;2023-07-09T01:19:26;21.60;99.90
9949;DHT22;5013;51.840;8.276;2023-07-09T01:21:58;21.50;99.90
9949;DHT22;5013;51.840;8.276;2023-07-09T01:25:03;21.40;1.00
9949;DHT22;5013;51.840;8.276;2023-07-09T01:27:33;21.30;99.90
9949;DHT22;5013;51.840;8.276;2023-07-09T01:30:05;21.30;1.00
9949;DHT22;5013;51.840;8.276;2023-07-09T01:32:31;21.30;1.00
9949;DHT22;5013;51.840;8.276;2023-07-09T01:35:00;21.30;1.00
9949;DHT22;5013;51.840;8.276;2023-07-09T01:37:30;21.30;1.00
9949;DHT22;5013;51.840;8.276;2023-07-09T01:39:56;21.20;1.00
9949;DHT22;5013;51.840;8.276;2023-07-09T01:42:24;21.20;1.00
9949;DHT22;5013;51.840;8.276;2023-07-09T01:44:51;21.10;1.00
9949;DHT22;5013;51.840;8.276;2023-07-09T01:47:17;21.10;1.00
9949;DHT22;5013;51.840;8.276;2023-07-09T01:49:43;21.20;1.00
9949;DHT22;5013;51.840;8.276;2023-07-09T01:52:12;21.20;1.00
9949;DHT22;5013;51.840;8.276;2023-07-09T01:54:39;21.10;1.00
9949;DHT22;5013;51.840;8.276;2023-07-09T01:57:21;21.10;1.00
9949;DHT22;5013;51.840;8.276;2023-07-09T01:59:54;21.00;1.00
9949;DHT22;5013;51.840;8.276;2023-07-09T02:02:21;20.90;1.00
9949;DHT22;5013;51.840;8.276;2023-07-09T02:04:52;20.90;1.00
9949;DHT22;5013;51.840;8.276;2023-07-09T02:07:18;20.90;1.00
9949;DHT22;5013;51.840;8.276;2023-07-09T02:09:44;20.80;1.00
9949;DHT22;5013;51.840;8.276;2023-07-09T02:12:11;20.60;1.00
9949;DHT22;5013;51.840;8.276;2023-07-09T02:14:39;20.50;28.50
9949;DHT22;5013;51.840;8.276;2023-07-09T02:17:05;20.60;1.00
9949;DHT22;5013;51.840;8.276;2023-07-09T02:19:31;20.70;1.00
9949;DHT22;5013;51.840;8.276;2023-07-09T02:21:57;20.70;1.00
9949;DHT22;5013;51.840;8.276;2023-07-09T02:24:24;20.50;99.90
9949;DHT22;5013;51.840;8.276;2023-07-09T02:26:58;20.40;99.90
9949;DHT22;5013;51.840;8.276;2023-07-09T02:29:25;20.50;99.90
9949;DHT22;5013;51.840;8.276;2023-07-09T02:31:52;20.50;1.00
9949;DHT22;5013;51.840;8.276;2023-07-09T02:34:18;20.60;1.00
9949;DHT22;5013;51.840;8.276;2023-07-09T02:36:44;20.60;51.60
9949;DHT22;5013;51.840;8.276;2023-07-09T02:39:12;20.50;99.90
9949;DHT22;5013;51.840;8.276;2023-07-09T02:41:41;20.50;99.90
9949;DHT22;5013;51.840;8.276;2023-07-09T02:44:07;20.50;29.30
9949;DHT22;5013;51.840;8.276;2023-07-09T02:46:33;20.40;99.90
9949;DHT22;5013;51.840;8.276;2023-07-09T02:49:00;20.30;99.90
9949;DHT22;5013;51.840;8.276;2023-07-09T02:51:25;20.30;99.90
9949;DHT22;5013;51.840;8.276;2023-07-09T02:53:55;20.30;99.90
9949;DHT22;5013;51.840;8.276;2023-07-09T02:56:21;20.30;99.90
9949;DHT22;5013;51.840;8.276;2023-07-09T02:58:46;20.30;99.90
9949;DHT22;5013;51.840;8.276;2023-07-09T03:01:12;20.20;99.90
9949;DHT22;5013;51.840;8.276;2023-07-09T03:03:38;20.20;99.90
9949;DHT22;5013;51.840;8.276;2023-07-09T03:06:05;20.20;1.00
9949;DHT22;5013;51.840;8.276;2023-07-09T03:08:31;20.20;1.00
9949;DHT22;5013;51.840;8.276;2023-07-09T03:10:57;20.10;1.00
9949;DHT22;5013;51.840;8.276;2023-07-09T03:13:23;20.20;1.00
9949;DHT22;5013;51.840;8.276;2023-07-09T03:15:56;20.10;1.00
9949;DHT22;5013;51.840;8.276;2023-07-09T03:18:22;20.20;1.00
9949;DHT22;5013;51.840;8.276;2023-07-09T03:20:48;20.20;99.90
9949;DHT22;5013;51.840;8.276;2023-07-09T03:23:13;20.10;1.00
9949;DHT22;5013;51.840;8.276;2023-07-09T03:25:43;20.10;1.00
9949;DHT22;5013;51.840;8.276;2023-07-09T03:28:09;20.10;1.00
9949;DHT22;5013;51.840;8.276;2023-07-09T03:30:39;20.10;1.00
9949;DHT22;5013;51.840;8.276;2023-07-09T03:33:04;20.00;1.00
9949;DHT22;5013;51.840;8.276;2023-07-09T03:35:30;20.10;1.00
9949;DHT22;5013;51.840;8.276;2023-07-09T03:37:56;20.00;1.00
9949;DHT22;5013;51.840;8.276;2023-07-09T03:40:22;20.10;1.00
9949;DHT22;5013;51.840;8.276;2023-07-09T03:42:48;20.10;1.00
9949;DHT22;5013;51.840;8.276;2023-07-09T03:45:14;20.10;1.00
9949;DHT22;5013;51.840;8.276;2023-07-09T03:47:40;20.20;1.00
9949;DHT22;5013;51.840;8.276;2023-07-09T03:50:07;20.30;99.90
9949;DHT22;5013;51.840;8.276;2023-07-09T03:52:34;20.30;1.00
9949;DHT22;5013;51.840;8.276;2023-07-09T03:54:59;20.30;99.90
9949;DHT22;5013;51.840;8.276;2023-07-09T03:57:26;20.30;99.90
9949;DHT22;5013;51.840;8.276;2023-07-09T03:59:52;20.20;1.00
9949;DHT22;5013;51.840;8.276;2023-07-09T04:02:18;20.30;1.00
9949;DHT22;5013;51.840;8.276;2023-07-09T04:04:43;20.30;99.90
9949;DHT22;5013;51.840;8.276;2023-07-09T04:07:09;20.40;1.00
9949;DHT22;5013;51.840;8.276;2023-07-09T04:09:35;20.40;99.90
9949;DHT22;5013;51.840;8.276;2023-07-09T04:12:00;20.40;1.00
9949;DHT22;5013;51.840;8.276;2023-07-09T04:14:29;20.50;1.00
9949;DHT22;5013;51.840;8.276;2023-07-09T04:16:54;20.60;99.90
9949;DHT22;5013;51.840;8.276;2023-07-09T04:19:20;20.50;99.90
9949;DHT22;5013;51.840;8.276;2023-07-09T04:21:46;20.60;99.90
9949;DHT22;5013;51.840;8.276;2023-07-09T04:24:11;20.50;99.90
9949;DHT22;5013;51.840;8.276;2023-07-09T04:26:37;20.60;99.90
9949;DHT22;5013;51.840;8.276;2023-07-09T04:29:04;20.50;1.00
9949;DHT22;5013;51.840;8.276;2023-07-09T04:31:31;20.50;99.90
9949;DHT22;5013;51.840;8.276;2023-07-09T04:33:57;20.70;99.90
9949;DHT22;5013;51.840;8.276;2023-07-09T04:36:22;20.90;51.40
9949;DHT22;5013;51.840;8.276;2023-07-09T04:38:48;21.10;99.90
9949;DHT22;5013;51.840;8.276;2023-07-09T04:41:13;20.90;1.00
9949;DHT22;5013;51.840;8.276;2023-07-09T04:43:39;21.00;1.00
9949;DHT22;5013;51.840;8.276;2023-07-09T04:46:05;21.00;1.00
9949;DHT22;5013;51.840;8.276;2023-07-09T04:48:30;21.10;99.90
9949;DHT22;5013;51.840;8.276;2023-07-09T04:50:56;21.10;1.00
9949;DHT22;5013;51.840;8.276;2023-07-09T04:53:21;21.20;1.00
9949;DHT22;5013;51.840;8.276;2023-07-09T04:55:49;22.00;1.00
9949;DHT22;5013;51.840;8.276;2023-07-09T04:58:15;22.90;99.90
9949;DHT22;5013;51.840;8.276;2023-07-09T05:00:42;23.40;99.90
9949;DHT22;5013;51.840;8.276;2023-07-09T05:03:07;23.70;1.00
9949;DHT22;5013;51.840;8.276;2023-07-09T05:05:33;23.90;1.00
9949;DHT22;5013;51.840;8.276;2023-07-09T05:07:59;24.00;1.00
9949;DHT22;5013;51.840;8.276;2023-07-09T05:10:25;24.30;1.00
9949;DHT22;5013;51.840;8.276;2023-07-09T05:12:52;24.50;1.00
9949;DHT22;5013;51.840;8.276;2023-07-09T05:15:19;24.40;1.00
9949;DHT22;5013;51.840;8.276;2023-07-09T05:17:46;24.30;1.00
9949;DHT22;5013;51.840;8.276;2023-07-09T05:20:12;24.20;1.00
9949;DHT22;5013;51.840;8.276;2023-07-09T05:22:38;24.10;1.00
9949;DHT22;5013;51.840;8.276;2023-07-09T05:25:04;24.20;1.00
9949;DHT22;5013;51.840;8.276;2023-07-09T05:27:29;23.90;1.00
9949;DHT22;5013;51.840;8.276;2023-07-09T05:29:55;23.90;1.00
9949;DHT22;5013;51.840;8.276;2023-07-09T05:32:21;23.80;1.00
9949;DHT22;5013;51.840;8.276;2023-07-09T05:34:46;24.00;1.00
9949;DHT22;5013;51.840;8.276;2023-07-09T05:37:12;23.80;23.90
9949;DHT22;5013;51.840;8.276;2023-07-09T05:39:37;23.80;99.90
9949;DHT22;5013;51.840;8.276;2023-07-09T05:42:03;23.90;99.90
9949;DHT22;5013;51.840;8.276;2023-07-09T05:44:28;24.00;99.90
9949;DHT22;5013;51.840;8.276;2023-07-09T05:46:54;24.10;47.90
9949;DHT22;5013;51.840;8.276;2023-07-09T05:49:20;24.20;12.30
9949;DHT22;5013;51.840;8.276;2023-07-09T05:51:45;24.30;49.20
9949;DHT22;5013;51.840;8.276;2023-07-09T05:54:11;24.10;21.40
9949;DHT22;5013;51.840;8.276;2023-07-09T05:56:36;24.30;1.00
9949;DHT22;5013;51.840;8.276;2023-07-09T05:59:02;24.50;1.00
9949;DHT22;5013;51.840;8.276;2023-07-09T06:01:28;24.60;1.00
9949;DHT22;5013;51.840;8.276;2023-07-09T06:03:53;24.60;1.00
9949;DHT22;5013;51.840;8.276;2023-07-09T06:06:20;24.80;1.00
9949;DHT22;5013;51.840;8.276;2023-07-09T06:08:45;24.70;1.00
9949;DHT22;5013;51.840;8.276;2023-07-09T06:11:12;24.80;1.00
9949;DHT22;5013;51.840;8.276;2023-07-09T06:13:38;25.10;1.00
9949;DHT22;5013;51.840;8.276;2023-07-09T06:16:04;25.10;1.00
9949;DHT22;5013;51.840;8.276;2023-07-09T06:18:30;25.30;1.00
9949;DHT22;5013;51.840;8.276;2023-07-09T06:21:00;25.40;1.00
9949;DHT22;5013;51.840;8.276;2023-07-09T06:23:26;25.40;1.00
9949;DHT22;5013;51.840;8.276;2023-07-09T06:25:51;25.30;1.00
9949;DHT22;5013;51.840;8.276;2023-07-09T06:28:21;25.40;1.00
9949;DHT22;5013;51.840;8.276;2023-07-09T06:30:47;25.60;1.00
9949;DHT22;5013;51.840;8.276;2023-07-09T06:33:14;25.90;1.00
9949;DHT22;5013;51.840;8.276;2023-07-09T06:35:46;25.70;1.00
9949;DHT22;5013;51.840;8.276;2023-07-09T06:38:12;25.80;1.00
9949;DHT22;5013;51.840;8.276;2023-07-09T06:40:38;25.80;1.00
9949;DHT22;5013;51.840;8.276;2023-07-09T06:43:03;25.80;1.00
9949;DHT22;5013;51.840;8.276;2023-07-09T06:45:29;26.10;1.00
9949;DHT22;5013;51.840;8.276;2023-07-09T06:47:54;26.50;1.00
9949;DHT22;5013;51.840;8.276;2023-07-09T06:50:20;26.60;1.00
9949;DHT22;5013;51.840;8.276;2023-07-09T06:52:46;26.70;1.00
9949;DHT22;5013;51.840;8.276;2023-07-09T06:55:11;26.90;1.00
9949;DHT22;5013;51.840;8.276;2023-07-09T06:57:37;27.30;1.00
9949;DHT22;5013;51.840;8.276;2023-07-09T07:00:03;27.30;1.00
9949;DHT22;5013;51.840;8.276;2023-07-09T07:02:29;27.20;1.00
9949;DHT22;5013;51.840;8.276;2023-07-09T07:04:55;27.00;1.00
9949;DHT22;5013;51.840;8.276;2023-07-09T07:07:21;27.30;1.00
9949;DHT22;5013;51.840;8.276;2023-07-09T07:09:46;27.30;1.00
9949;DHT22;5013;51.840;8.276;2023-07-09T07:12:27;27.30;1.00
9949;DHT22;5013;51.840;8.276;2023-07-09T07:14:53;27.50;1.00
9949;DHT22;5013;51.840;8.276;2023-07-09T07:17:20;27.60;1.00
9949;DHT22;5013;51.840;8.276;2023-07-09T07:19:45;27.60;1.00
9949;DHT22;5013;51.840;8.276;2023-07-09T07:22:11;27.70;1.00
9949;DHT22;5013;51.840;8.276;2023-07-09T07:24:37;28.00;1.00
9949;DHT22;5013;51.840;8.276;2023-07-09T07:27:03;28.10;1.00
9949;DHT22;5013;51.840;8.276;2023-07-09T07:29:28;28.30;1.00
9949;DHT22;5013;51.840;8.276;2023-07-09T07:31:54;28.50;1.00
9949;DHT22;5013;51.840;8.276;2023-07-09T07:34:20;28.50;1.00
9949;DHT22;5013;51.840;8.276;2023-07-09T07:36:47;28.50;1.00
9949;DHT22;5013;51.840;8.276;2023-07-09T07:39:12;28.70;1.00
9949;DHT22;5013;51.840;8.276;2023-07-09T07:41:38;28.90;1.00
9949;DHT22;5013;51.840;8.276;2023-07-09T07:44:04;29.20;1.00
9949;DHT22;5013;51.840;8.276;2023-07-09T07:46:30;29.30;1.00
9949;DHT22;5013;51.840;8.276;2023-07-09T07:48:57;29.70;1.00
9949;DHT22;5013;51.840;8.276;2023-07-09T07:51:23;30.00;1.00
9949;DHT22;5013;51.840;8.276;2023-07-09T07:53:48;30.10;1.00
9949;DHT22;5013;51.840;8.276;2023-07-09T07:56:14;29.80;1.00
9949;DHT22;5013;51.840;8.276;2023-07-09T07:58:40;29.50;1.00
9949;DHT22;5013;51.840;8.276;2023-07-09T08:01:06;29.90;1.00
9949;DHT22;5013;51.840;8.276;2023-07-09T08:03:31;30.20;1.00
9949;DHT22;5013;51.840;8.276;2023-07-09T08:05:57;30.40;1.00
9949;DHT22;5013;51.840;8.276;2023-07-09T08:08:22;30.70;1.00
9949;DHT22;5013;51.840;8.276;2023-07-09T08:10:49;31.00;1.00
9949;DHT22;5013;51.840;8.276;2023-07-09T08:13:16;30.90;1.00
9949;DHT22;5013;51.840;8.276;2023-07-09T08:15:41;30.90;1.00
9949;DHT22;5013;51.840;8.276;2023-07-09T08:18:07;30.90;1.00
9949;DHT22;5013;51.840;8.276;2023-07-09T08:20:33;31.10;1.00
9949;DHT22;5013;51.840;8.276;2023-07-09T08:22:59;31.40;1.00
9949;DHT22;5013;51.840;8.276;2023-07-09T08:25:24;31.40;1.00
9949;DHT22;5013;51.840;8.276;2023-07-09T08:27:50;31.40;1.00
9949;DHT22;5013;51.840;8.276;2023-07-09T08:30:16;31.50;1.00
9949;DHT22;5013;51.840;8.276;2023-07-09T08:32:41;31.60;1.00
9949;DHT22;5013;51.840;8.276;2023-07-09T08:35:07;31.90;1.00
9949;DHT22;5013;51.840;8.276;2023-07-09T08:37:35;31.70;1.00
9949;DHT22;5013;51.840;8.276;2023-07-09T08:40:01;31.40;1.00
9949;DHT22;5013;51.840;8.276;2023-07-09T08:42:33;30.70;1.00
9949;DHT22;5013;51.840;8.276;2023-07-09T08:45:25;31.00;1.00
9949;DHT22;5013;51.840;8.276;2023-07-09T08:51:18;31.90;1.00
9949;DHT22;5013;51.840;8.276;2023-07-09T08:53:51;32.00;1.00
9949;DHT22;5013;51.840;8.276;2023-07-09T08:56:19;32.30;1.00
9949;DHT22;5013;51.840;8.276;2023-07-09T08:58:46;32.30;1.00
9949;DHT22;5013;51.840;8.276;2023-07-09T09:01:26;32.30;1.00
9949;DHT22;5013;51.840;8.276;2023-07-09T09:04:03;32.50;1.00
9949;DHT22;5013;51.840;8.276;2023-07-09T09:06:31;32.60;1.00
9949;DHT22;5013;51.840;8.276;2023-07-09T09:09:12;32.60;1.00
9949;DHT22;5013;51.840;8.276;2023-07-09T09:11:48;32.70;1.00
9949;DHT22;5013;51.840;8.276;2023-07-09T09:14:32;32.60;1.00
9949;DHT22;5013;51.840;8.276;2023-07-09T09:16:59;32.60;1.00
9949;DHT22;5013;51.840;8.276;2023-07-09T09:19:32;32.90;1.00
9949;DHT22;5013;51.840;8.276;2023-07-09T09:22:07;32.40;1.00
9949;DHT22;5013;51.840;8.276;2023-07-09T09:24:40;32.50;1.00
9949;DHT22;5013;51.840;8.276;2023-07-09T09:27:08;32.90;1.00
9949;DHT22;5013;51.840;8.276;2023-07-09T09:29:34;32.50;1.00
9949;DHT22;5013;51.840;8.276;2023-07-09T09:32:10;32.90;1.00
9949;DHT22;5013;51.840;8.276;2023-07-09T09:34:42;33.10;1.00
9949;DHT22;5013;51.840;8.276;2023-07-09T09:37:11;33.50;1.00
9949;DHT22;5013;51.840;8.276;2023-07-09T09:39:38;33.50;1.00
9949;DHT22;5013;51.840;8.276;2023-07-09T09:42:10;33.50;1.00
9949;DHT22;5013;51.840;8.276;2023-07-09T09:44:43;33.80;1.00
9949;DHT22;5013;51.840;8.276;2023-07-09T09:47:10;34.00;1.00
9949;DHT22;5013;51.840;8.276;2023-07-09T09:49:46;34.00;1.00
9949;DHT22;5013;51.840;8.276;2023-07-09T09:52:16;34.30;1.00
9949;DHT22;5013;51.840;8.276;2023-07-09T09:54:54;34.00;1.00
9949;DHT22;5013;51.840;8.276;2023-07-09T09:57:23;33.90;1.00
9949;DHT22;5013;51.840;8.276;2023-07-09T09:59:49;34.00;1.00
9949;DHT22;5013;51.840;8.276;2023-07-09T10:02:18;34.20;1.00
9949;DHT22;5013;51.840;8.276;2023-07-09T10:04:44;34.30;1.00
9949;DHT22;5013;51.840;8.276;2023-07-09T10:07:22;34.10;1.00
9949;DHT22;5013;51.840;8.276;2023-07-09T10:09:53;34.30;1.00
9949;DHT22;5013;51.840;8.276;2023-07-09T10:12:43;34.30;1.00
9949;DHT22;5013;51.840;8.276;2023-07-09T10:15:34;34.00;1.00
9949;DHT22;5013;51.840;8.276;2023-07-09T10:21:05;34.20;1.00
9949;DHT22;5013;51.840;8.276;2023-07-09T10:23:47;34.20;1.00
9949;DHT22;5013;51.840;8.276;2023-07-09T10:26:39;34.50;1.00
9949;DHT22;5013;51.840;8.276;2023-07-09T10:29:23;34.50;1.00
9949;DHT22;5013;51.840;8.276;2023-07-09T10:32:03;34.70;1.00
9949;DHT22;5013;51.840;8.276;2023-07-09T10:34:40;34.70;1.00
9949;DHT22;5013;51.840;8.276;2023-07-09T10:40:55;35.10;99.90
9949;DHT22;5013;51.840;8.276;2023-07-09T10:46:00;35.10;99.90
9949;DHT22;5013;51.840;8.276;2023-07-09T10:48:38;35.30;99.90
9949;DHT22;5013;51.840;8.276;2023-07-09T10:51:11;35.50;99.90
9949;DHT22;5013;51.840;8.276;2023-07-09T10:56:47;35.50;99.90
9949;DHT22;5013;51.840;8.276;2023-07-09T10:59:32;35.80;99.90
9949;DHT22;5013;51.840;8.276;2023-07-09T11:10:28;36.10;99.90
9949;DHT22;5013;51.840;8.276;2023-07-09T11:13:01;36.20;99.90
9949;DHT22;5013;51.840;8.276;2023-07-09T11:15:32;36.50;99.90
9949;DHT22;5013;51.840;8.276;2023-07-09T11:18:00;36.00;99.90
9949;DHT22;5013;51.840;8.276;2023-07-09T11:20:41;35.70;99.90
9949;DHT22;5013;51.840;8.276;2023-07-09T11:23:18;35.70;99.90
9949;DHT22;5013;51.840;8.276;2023-07-09T11:25:48;35.70;99.90
9949;DHT22;5013;51.840;8.276;2023-07-09T11:28:14;35.70;99.90
9949;DHT22;5013;51.840;8.276;2023-07-09T11:30:50;35.70;99.90
9949;DHT22;5013;51.840;8.276;2023-07-09T11:33:19;36.30;99.90
9949;DHT22;5013;51.840;8.276;2023-07-09T11:35:48;36.50;99.90
9949;DHT22;5013;51.840;8.276;2023-07-09T11:38:19;36.30;99.90
9949;DHT22;5013;51.840;8.276;2023-07-09T11:40:47;36.70;99.90
9949;DHT22;5013;51.840;8.276;2023-07-09T11:43:33;36.60;99.90
9949;DHT22;5013;51.840;8.276;2023-07-09T11:46:16;36.00;99.90
9949;DHT22;5013;51.840;8.276;2023-07-09T11:48:42;36.00;99.90
9949;DHT22;5013;51.840;8.276;2023-07-09T11:51:20;35.90;99.90
9949;DHT22;5013;51.840;8.276;2023-07-09T11:53:53;36.00;99.90
9949;DHT22;5013;51.840;8.276;2023-07-09T11:56:24;36.20;99.90
9949;DHT22;5013;51.840;8.276;2023-07-09T11:58:52;36.80;99.90
9949;DHT22;5013;51.840;8.276;2023-07-09T12:01:23;36.30;99.90
9949;DHT22;5013;51.840;8.276;2023-07-09T12:03:51;36.10;99.90
9949;DHT22;5013;51.840;8.276;2023-07-09T12:06:20;36.10;99.90
9949;DHT22;5013;51.840;8.276;2023-07-09T12:08:48;36.00;99.90
9949;DHT22;5013;51.840;8.276;2023-07-09T12:11:32;36.20;99.90
9949;DHT22;5013;51.840;8.276;2023-07-09T12:14:04;36.40;99.90
9949;DHT22;5013;51.840;8.276;2023-07-09T12:16:36;36.40;99.90
9949;DHT22;5013;51.840;8.276;2023-07-09T12:19:03;36.20;99.90
9949;DHT22;5013;51.840;8.276;2023-07-09T12:21:30;36.00;99.90
9949;DHT22;5013;51.840;8.276;2023-07-09T12:23:56;35.90;99.90
9949;DHT22;5013;51.840;8.276;2023-07-09T12:26:22;35.70;99.90
9949;DHT22;5013;51.840;8.276;2023-07-09T12:28:56;35.50;99.90
9949;DHT22;5013;51.840;8.276;2023-07-09T12:31:29;36.10;99.90
9949;DHT22;5013;51.840;8.276;2023-07-09T12:33:57;36.20;99.90
9949;DHT22;5013;51.840;8.276;2023-07-09T12:36:27;36.20;99.90
9949;DHT22;5013;51.840;8.276;2023-07-09T12:38:59;36.00;99.90
9949;DHT22;5013;51.840;8.276;2023-07-09T12:41:29;35.90;99.90
9949;DHT22;5013;51.840;8.276;2023-07-09T12:43:58;35.90;99.90
9949;DHT22;5013;51.840;8.276;2023-07-09T12:46:24;36.10;99.90
9949;DHT22;5013;51.840;8.276;2023-07-09T12:48:50;36.30;99.90
9949;DHT22;5013;51.840;8.276;2023-07-09T12:51:22;36.30;99.90
9949;DHT22;5013;51.840;8.276;2023-07-09T12:54:19;36.70;99.90
9949;DHT22;5013;51.840;8.276;2023-07-09T12:56:45;36.80;99.90
9949;DHT22;5013;51.840;8.276;2023-07-09T13:04:20;37.40;99.90
9949;DHT22;5013;51.840;8.276;2023-07-09T13:06:46;37.30;99.90
9949;DHT22;5013;51.840;8.276;2023-07-09T13:09:19;37.30;99.90
9949;DHT22;5013;51.840;8.276;2023-07-09T13:11:47;37.10;99.90
9949;DHT22;5013;51.840;8.276;2023-07-09T13:14:19;36.80;99.90
9949;DHT22;5013;51.840;8.276;2023-07-09T13:16:47;36.50;99.90
9949;DHT22;5013;51.840;8.276;2023-07-09T13:19:12;36.40;99.90
9949;DHT22;5013;51.840;8.276;2023-07-09T13:21:40;36.60;99.90
9949;DHT22;5013;51.840;8.276;2023-07-09T13:24:20;36.60;99.90
9949;DHT22;5013;51.840;8.276;2023-07-09T13:26:47;36.70;99.90
9949;DHT22;5013;51.840;8.276;2023-07-09T13:29:14;36.60;99.90
9949;DHT22;5013;51.840;8.276;2023-07-09T13:31:41;36.70;99.90
9949;DHT22;5013;51.840;8.276;2023-07-09T13:34:18;37.00;99.90
9949;DHT22;5013;51.840;8.276;2023-07-09T13:36:44;37.30;99.90
9949;DHT22;5013;51.840;8.276;2023-07-09T13:39:13;36.80;99.90
9949;DHT22;5013;51.840;8.276;2023-07-09T13:41:43;36.80;99.90
9949;DHT22;5013;51.840;8.276;2023-07-09T13:44:16;36.90;99.90
9949;DHT22;5013;51.840;8.276;2023-07-09T13:46:41;36.80;99.90
9949;DHT22;5013;51.840;8.276;2023-07-09T13:49:16;36.60;99.90
9949;DHT22;5013;51.840;8.276;2023-07-09T13:51:44;36.40;99.90
9949;DHT22;5013;51.840;8.276;2023-07-09T13:54:27;36.30;99.90
9949;DHT22;5013;51.840;8.276;2023-07-09T13:56:52;36.10;99.90
9949;DHT22;5013;51.840;8.276;2023-07-09T13:59:19;36.20;99.90
9949;DHT22;5013;51.840;8.276;2023-07-09T14:01:45;36.40;99.90
9949;DHT22;5013;51.840;8.276;2023-07-09T14:04:13;36.30;99.90
9949;DHT22;5013;51.840;8.276;2023-07-09T14:06:40;36.50;99.90
9949;DHT22;5013;51.840;8.276;2023-07-09T14:09:08;36.80;99.90
9949;DHT22;5013;51.840;8.276;2023-07-09T14:11:34;36.80;99.90
9949;DHT22;5013;51.840;8.276;2023-07-09T14:14:00;37.00;99.90
9949;DHT22;5013;51.840;8.276;2023-07-09T14:16:25;36.90;99.90
9949;DHT22;5013;51.840;8.276;2023-07-09T14:18:51;36.80;99.90
9949;DHT22;5013;51.840;8.276;2023-07-09T14:21:26;36.60;99.90
9949;DHT22;5013;51.840;8.276;2023-07-09T14:23:53;36.30;99.90
9949;DHT22;5013;51.840;8.276;2023-07-09T14:26:19;36.10;99.90
9949;DHT22;5013;51.840;8.276;2023-07-09T14:28:44;36.10;99.90
9949;DHT22;5013;51.840;8.276;2023-07-09T14:31:23;36.10;99.90
9949;DHT22;5013;51.840;8.276;2023-07-09T14:33:49;36.30;99.90
9949;DHT22;5013;51.840;8.276;2023-07-09T14:36:15;36.40;99.90
9949;DHT22;5013;51.840;8.276;2023-07-09T14:38:40;36.50;99.90
9949;DHT22;5013;51.840;8.276;2023-07-09T14:41:19;36.40;99.90
9949;DHT22;5013;51.840;8.276;2023-07-09T14:43:46;36.60;99.90
9949;DHT22;5013;51.840;8.276;2023-07-09T14:46:11;36.70;99.90
9949;DHT22;5013;51.840;8.276;2023-07-09T14:48:37;36.60;99.90
9949;DHT22;5013;51.840;8.276;2023-07-09T14:51:14;36.50;99.90
9949;DHT22;5013;51.840;8.276;2023-07-09T14:53:40;36.40;99.90
9949;DHT22;5013;51.840;8.276;2023-07-09T14:56:06;36.30;99.90
9949;DHT22;5013;51.840;8.276;2023-07-09T14:58:31;36.10;99.90
9949;DHT22;5013;51.840;8.276;2023-07-09T15:00:57;36.00;99.90
9949;DHT22;5013;51.840;8.276;2023-07-09T15:03:24;36.00;99.90
9949;DHT22;5013;51.840;8.276;2023-07-09T15:05:51;36.10;99.90
9949;DHT22;5013;51.840;8.276;2023-07-09T15:08:20;36.00;99.90
9949;DHT22;5013;51.840;8.276;2023-07-09T15:10:48;35.90;99.90
9949;DHT22;5013;51.840;8.276;2023-07-09T15:13:33;35.90;99.90
9949;DHT22;5013;51.840;8.276;2023-07-09T15:16:00;35.90;99.90
9949;DHT22;5013;51.840;8.276;2023-07-09T15:18:26;35.50;99.90
9949;DHT22;5013;51.840;8.276;2023-07-09T15:20:58;35.40;99.90
9949;DHT22;5013;51.840;8.276;2023-07-09T15:23:24;35.30;99.90
9949;DHT22;5013;51.840;8.276;2023-07-09T15:25:51;35.10;99.90
9949;DHT22;5013;51.840;8.276;2023-07-09T15:28:17;34.90;99.90
9949;DHT22;5013;51.840;8.276;2023-07-09T15:30:43;34.70;99.90
9949;DHT22;5013;51.840;8.276;2023-07-09T15:33:14;34.60;99.90
9949;DHT22;5013;51.840;8.276;2023-07-09T15:35:41;34.20;99.90
9949;DHT22;5013;51.840;8.276;2023-07-09T15:40:43;33.60;99.90
9949;DHT22;5013;51.840;8.276;2023-07-09T15:43:08;33.50;99.90
9949;DHT22;5013;51.840;8.276;2023-07-09T15:45:40;33.30;99.90
9949;DHT22;5013;51.840;8.276;2023-07-09T15:48:09;33.10;99.90
9949;DHT22;5013;51.840;8.276;2023-07-09T15:50:44;32.90;1.00
9949;DHT22;5013;51.840;8.276;2023-07-09T15:53:10;32.60;1.00
9949;DHT22;5013;51.840;8.276;2023-07-09T15:55:36;32.40;1.00
9949;DHT22;5013;51.840;8.276;2023-07-09T15:58:01;32.00;1.00
9949;DHT22;5013;51.840;8.276;2023-07-09T16:00:28;31.80;1.00
9949;DHT22;5013;51.840;8.276;2023-07-09T16:02:55;31.70;1.00
9949;DHT22;5013;51.840;8.276;2023-07-09T16:07:49;31.50;1.00
9949;DHT22;5013;51.840;8.276;2023-07-09T16:10:15;31.30;1.00
9949;DHT22;5013;51.840;8.276;2023-07-09T16:12:41;31.10;1.00
9949;DHT22;5013;51.840;8.276;2023-07-09T16:15:12;31.10;1.00
9949;DHT22;5013;51.840;8.276;2023-07-09T16:17:42;31.10;1.00
9949;DHT22;5013;51.840;8.276;2023-07-09T16:20:15;31.00;1.00
9949;DHT22;5013;51.840;8.276;2023-07-09T16:22:42;30.90;1.00
9949;DHT22;5013;51.840;8.276;2023-07-09T16:25:20;30.70;1.00
9949;DHT22;5013;51.840;8.276;2023-07-09T16:27:47;30.80;1.00
9949;DHT22;5013;51.840;8.276;2023-07-09T16:30:22;30.20;1.00
9949;DHT22;5013;51.840;8.276;2023-07-09T16:32:48;29.50;1.00
9949;DHT22;5013;51.840;8.276;2023-07-09T16:35:16;29.10;1.00
9949;DHT22;5013;51.840;8.276;2023-07-09T16:37:43;28.70;1.00
9949;DHT22;5013;51.840;8.276;2023-07-09T16:40:30;28.50;1.00
9949;DHT22;5013;51.840;8.276;2023-07-09T16:42:57;28.20;1.00
9949;DHT22;5013;51.840;8.276;2023-07-09T16:45:25;28.00;1.00
9949;DHT22;5013;51.840;8.276;2023-07-09T16:47:51;27.50;99.90
9949;DHT22;5013;51.840;8.276;2023-07-09T16:50:19;27.00;1.00
9949;DHT22;5013;51.840;8.276;2023-07-09T16:52:46;26.40;99.90
9949;DHT22;5013;51.840;8.276;2023-07-09T16:55:19;26.00;1.00
9949;DHT22;5013;51.840;8.276;2023-07-09T16:57:54;25.50;99.90
9949;DHT22;5013;51.840;8.276;2023-07-09T17:00:27;25.00;1.00